Time;durP1;ratioP1;P1;durP2;ratioP2;P2;SDS_P1;SDS_P2;PMS_P1;PMS_P2;Temp;Humidity;BMP_temperature;BMP_pressure;BME280_temperature;BME280_humidity;BME280_pressure;Samples;Min_cycle;Max_cycle;Signal;HPM_P1;HPM_P2
2021/10/15 00:00:21;;;;;;;47.33;20.37;;;;;;;-0.86;92.70;100138.86;1728496;81;21069;-66
2021/10/15 00:02:48;;;;;;;39.98;18.40;;;;;;;-0.87;92.87;100144.47;1730866;81;21097;-63
2021/10/15 00:05:14;;;;;;;35.20;18.42;;;;;;;-0.93;92.79;100139.98;1766495;81;20959;-64
2021/10/15 00:07:41;;;;;;;40.25;18.85;;;;;;;-0.97;92.79;100141.48;1766535;81;20853;-64
2021/10/15 00:10:09;;;;;;;37.63;18.40;;;;;;;-1.02;92.88;100144.33;1766581;81;20881;-65
2021/10/15 00:12:36;;;;;;;38.45;19.07;;;;;;;-1.03;92.95;100139.16;1766798;81;21554;-65
2021/10/15 00:15:06;;;;;;;38.45;19.48;;;;;;;-1.04;92.96;100135.65;1766832;80;21396;-63
2021/10/15 00:17:35;;;;;;;40.52;18.00;;;;;;;-1.06;92.88;100136.40;1766767;81;20927;-64
2021/10/15 00:20:04;;;;;;;40.75;18.65;;;;;;;-1.07;92.91;100129.36;1766748;81;21428;-65
2021/10/15 00:22:32;;;;;;;38.60;20.10;;;;;;;-1.08;92.90;100132.28;1766589;81;20897;-65
2021/10/15 00:24:59;;;;;;;36.88;19.27;;;;;;;-1.10;92.94;100133.03;1766635;81;20920;-67
2021/10/15 00:27:26;;;;;;;38.13;19.48;;;;;;;-1.11;92.89;100134.91;1770264;81;22343;-68
2021/10/15 00:29:52;;;;;;;40.17;19.27;;;;;;;-1.12;92.84;100137.82;1766545;81;21637;-66
2021/10/15 00:32:18;;;;;;;42.95;21.23;;;;;;;-1.15;92.79;100133.70;1766657;81;20884;-65
2021/10/15 00:34:45;;;;;;;42.45;20.08;;;;;;;-1.17;92.73;100126.40;1766719;81;20975;-64
2021/10/15 00:37:12;;;;;;;44.45;20.32;;;;;;;-1.19;92.72;100123.63;1766963;81;20941;-64
2021/10/15 00:39:38;;;;;;;45.30;20.12;;;;;;;-1.20;92.76;100123.33;1766758;81;21888;-65
2021/10/15 00:42:05;;;;;;;39.35;19.50;;;;;;;-1.21;92.67;100133.81;1766410;81;20892;-65
2021/10/15 00:44:38;;;;;;;34.65;19.12;;;;;;;-1.25;92.61;100126.70;1766548;81;20964;-65
2021/10/15 00:47:04;;;;;;;44.40;20.68;;;;;;;-1.27;92.73;100126.10;1767149;81;21013;-66
2021/10/15 00:49:31;;;;;;;39.03;19.02;;;;;;;-1.29;92.78;100131.41;1766687;81;20972;-66
2021/10/15 00:51:57;;;;;;;45.35;20.82;;;;;;;-1.33;92.87;100128.34;1766831;81;21764;-66
2021/10/15 00:54:24;;;;;;;44.33;21.05;;;;;;;-1.36;92.91;100136.34;1766608;81;20928;-66
2021/10/15 00:56:50;;;;;;;47.95;22.10;;;;;;;-1.37;92.90;100127.97;1766807;81;21613;-66
2021/10/15 00:59:17;;;;;;;45.25;22.00;;;;;;;-1.38;92.87;100126.32;1766558;81;20975;-64
2021/10/15 01:01:43;;;;;;;45.75;20.80;;;;;;;-1.38;92.90;100129.02;1766950;81;20869;-64
2021/10/15 01:04:09;;;;;;;47.93;23.12;;;;;;;-1.40;92.90;100129.76;1766481;81;21025;-64
2021/10/15 01:06:37;;;;;;;52.78;23.40;;;;;;;-1.40;93.06;100135.14;1763565;81;20943;-64
2021/10/15 01:09:04;;;;;;;50.55;23.45;;;;;;;-1.41;93.15;100134.84;1763951;81;20964;-64
2021/10/15 01:11:32;;;;;;;58.33;24.45;;;;;;;-1.43;93.25;100130.20;1766671;81;21446;-64
2021/10/15 01:13:58;;;;;;;48.17;22.35;;;;;;;-1.43;93.32;100135.59;1766664;81;20932;-64
2021/10/15 01:16:27;;;;;;;45.45;20.90;;;;;;;-1.43;93.26;100132.90;1766515;81;21011;-64
2021/10/15 01:18:58;;;;;;;54.05;23.32;;;;;;;-1.45;93.20;100130.95;1766481;81;21403;-64
2021/10/15 01:21:25;;;;;;;50.23;22.07;;;;;;;-1.45;93.21;100129.61;1766622;81;21020;-64
2021/10/15 01:23:52;;;;;;;42.78;21.30;;;;;;;-1.45;93.26;100127.44;1766445;81;20865;-64
2021/10/15 01:26:18;;;;;;;45.00;21.87;;;;;;;-1.47;93.20;100127.66;1766711;81;21385;-64
2021/10/15 01:28:45;;;;;;;55.25;24.02;;;;;;;-1.47;93.35;100124.97;1766721;81;21443;-64
2021/10/15 01:31:13;;;;;;;50.25;22.75;;;;;;;-1.46;93.46;100120.41;1766646;81;21424;-64
2021/10/15 01:33:40;;;;;;;47.75;21.15;;;;;;;-1.46;93.42;100118.53;1766528;81;20924;-66
2021/10/15 01:36:06;;;;;;;48.60;22.32;;;;;;;-1.47;93.28;100114.19;1766585;81;20937;-66
2021/10/15 01:38:33;;;;;;;48.63;22.82;;;;;;;-1.47;93.18;100114.72;1766483;81;20971;-64
2021/10/15 01:41:00;;;;;;;47.30;21.37;;;;;;;-1.48;93.13;100120.62;1766537;81;22349;-64
2021/10/15 01:43:29;;;;;;;50.67;22.67;;;;;;;-1.49;93.10;100120.84;1766438;81;20936;-66
2021/10/15 01:45:57;;;;;;;46.73;22.45;;;;;;;-1.51;93.05;100129.14;1766598;81;20964;-66
2021/10/15 01:48:24;;;;;;;50.03;23.20;;;;;;;-1.53;92.98;100135.28;1766542;81;21436;-65
2021/10/15 01:50:51;;;;;;;58.75;25.88;;;;;;;-1.56;92.93;100136.25;1766961;81;20880;-65
2021/10/15 01:53:18;;;;;;;51.28;23.75;;;;;;;-1.57;92.90;100137.29;1766585;81;21157;-64
2021/10/15 01:55:45;;;;;;;47.93;22.70;;;;;;;-1.60;92.99;100138.55;1766432;81;21006;-64
2021/10/15 01:58:12;;;;;;;43.42;20.75;;;;;;;-1.64;93.01;100134.66;1766605;81;20912;-64
2021/10/15 02:00:39;;;;;;;51.77;23.42;;;;;;;-1.65;93.00;100134.36;1766796;81;21416;-65
2021/10/15 02:03:05;;;;;;;50.05;23.40;;;;;;;-1.67;92.90;100128.37;1768324;81;21047;-65
2021/10/15 02:05:32;;;;;;;49.83;22.48;;;;;;;-1.69;93.06;100130.46;1772161;80;21114;-65
2021/10/15 02:08:00;;;;;;;49.48;22.80;;;;;;;-1.70;93.23;100124.25;1772068;80;20852;-66
2021/10/15 02:10:27;;;;;;;45.95;22.42;;;;;;;-1.71;93.19;100125.30;1772184;81;20928;-65
2021/10/15 02:12:54;;;;;;;50.40;23.45;;;;;;;-1.71;93.25;100131.20;1772581;81;20944;-65
2021/10/15 02:15:23;;;;;;;50.45;23.35;;;;;;;-1.73;93.23;100126.05;1772306;81;21460;-65
2021/10/15 02:17:50;;;;;;;55.45;23.85;;;;;;;-1.73;93.17;100127.91;1772143;81;21138;-66
2021/10/15 02:20:18;;;;;;;44.53;23.07;;;;;;;-1.75;93.29;100125.99;1772136;81;20959;-65
2021/10/15 02:22:48;;;;;;;51.88;23.90;;;;;;;-1.74;93.46;100117.70;1772308;81;20932;-65
2021/10/15 02:25:16;;;;;;;48.33;22.70;;;;;;;-1.74;93.35;100117.70;1772330;81;20963;-66
2021/10/15 02:27:44;;;;;;;51.00;23.15;;;;;;;-1.75;93.21;100116.57;1772458;81;20841;-65
2021/10/15 02:30:12;;;;;;;52.98;23.35;;;;;;;-1.76;93.23;100114.92;1771623;81;21064;-65
2021/10/15 02:32:39;;;;;;;50.20;22.58;;;;;;;-1.78;93.15;100121.87;1760184;81;20849;-64
2021/10/15 02:35:07;;;;;;;53.87;23.20;;;;;;;-1.78;93.11;100119.70;1762136;81;20892;-65
2021/10/15 02:37:35;;;;;;;49.05;22.93;;;;;;;-1.80;93.02;100119.10;1762396;81;21007;-64
2021/10/15 02:40:05;;;;;;;53.68;22.98;;;;;;;-1.82;93.00;100117.98;1762141;81;20950;-65
2021/10/15 02:42:32;;;;;;;48.23;22.87;;;;;;;-1.82;93.04;100117.16;1762151;81;21183;-64
2021/10/15 02:44:59;;;;;;;46.25;22.42;;;;;;;-1.84;93.15;100117.90;1762137;81;20884;-65
2021/10/15 02:47:25;;;;;;;56.15;23.73;;;;;;;-1.83;93.36;100112.81;1762090;81;20932;-64
2021/10/15 02:49:52;;;;;;;46.25;21.27;;;;;;;-1.85;93.26;100118.42;1762097;81;20900;-64
2021/10/15 02:52:19;;;;;;;62.25;25.75;;;;;;;-1.84;93.29;100115.20;1762199;81;20853;-64
2021/10/15 02:54:46;;;;;;;47.93;23.52;;;;;;;-1.75;94.55;100116.57;1762237;81;21145;-64
2021/10/15 02:57:13;;;;;;;53.90;24.05;;;;;;;-1.61;95.54;100115.37;1762202;81;20908;-64
2021/10/15 02:59:39;;;;;;;53.83;24.87;;;;;;;-1.49;96.17;100109.55;1762056;81;20908;-65
2021/10/15 03:02:07;;;;;;;48.92;23.20;;;;;;;-1.40;96.16;100116.30;1762215;81;20949;-65
2021/10/15 03:04:33;;;;;;;53.00;23.35;;;;;;;-1.38;96.00;100114.20;1768115;81;21484;-65
2021/10/15 03:07:00;;;;;;;47.67;21.10;;;;;;;-1.38;95.64;100111.50;1769895;81;21146;-65
2021/10/15 03:09:27;;;;;;;43.85;22.07;;;;;;;-1.38;95.56;100107.47;1769847;81;20932;-66
2021/10/15 03:11:54;;;;;;;57.70;24.75;;;;;;;-1.39;95.35;100108.52;1769995;81;20932;-65
2021/10/15 03:14:22;;;;;;;53.48;23.87;;;;;;;-1.37;95.59;100106.94;1769919;81;21042;-65
2021/10/15 03:16:49;;;;;;;54.93;23.73;;;;;;;-1.25;97.07;100101.63;1770079;81;20931;-65
2021/10/15 03:19:15;;;;;;;52.80;24.20;;;;;;;-1.11;98.02;100099.88;1769954;80;21140;-65
2021/10/15 03:21:42;;;;;;;54.67;24.77;;;;;;;-1.00;98.44;100096.94;1770047;81;21412;-64
2021/10/15 03:24:09;;;;;;;47.40;22.17;;;;;;;-0.88;99.01;100103.73;1769911;80;21007;-64
2021/10/15 03:26:36;;;;;;;50.67;22.50;;;;;;;-0.84;98.94;100100.36;1770001;81;20896;-65
2021/10/15 03:29:03;;;;;;;48.33;21.05;;;;;;;-0.83;98.70;100103.36;1770009;81;21069;-65
2021/10/15 03:31:30;;;;;;;49.38;21.57;;;;;;;-0.87;98.22;100092.73;1770063;81;21855;-64
2021/10/15 03:33:56;;;;;;;45.60;19.95;;;;;;;-0.92;97.79;100101.20;1769803;81;20927;-65
2021/10/15 03:36:23;;;;;;;47.48;20.25;;;;;;;-0.96;97.49;100112.14;1769904;81;20876;-67
2021/10/15 03:38:49;;;;;;;45.63;20.90;;;;;;;-1.00;97.28;100111.77;1769849;81;21440;-64
2021/10/15 03:41:17;;;;;;;43.78;20.05;;;;;;;-1.04;97.04;100113.27;1769948;80;20975;-65
2021/10/15 03:43:43;;;;;;;53.70;23.02;;;;;;;-1.07;97.04;100109.16;1769968;81;21787;-65
2021/10/15 03:46:10;;;;;;;49.03;22.25;;;;;;;-1.04;97.56;100112.74;1769899;81;20845;-66
2021/10/15 03:48:36;;;;;;;45.10;21.87;;;;;;;-0.99;97.81;100117.45;1769921;81;21534;-66
2021/10/15 03:51:05;;;;;;;42.55;20.80;;;;;;;-0.97;97.88;100117.23;1770164;81;20889;-65
2021/10/15 03:53:31;;;;;;;48.52;21.68;;;;;;;-0.97;97.67;100121.27;1770416;80;21387;-65
2021/10/15 03:55:58;;;;;;;41.45;19.40;;;;;;;-0.99;97.61;100129.58;1769936;81;21804;-66
2021/10/15 03:58:25;;;;;;;51.90;21.75;;;;;;;-1.00;97.77;100121.20;1769770;81;20940;-65
2021/10/15 04:00:51;;;;;;;47.70;21.25;;;;;;;-1.03;97.57;100129.73;1769932;81;20848;-65
2021/10/15 04:03:20;;;;;;;41.28;19.32;;;;;;;-1.02;97.80;100118.73;1769515;81;21483;-65
2021/10/15 04:05:46;;;;;;;43.02;20.37;;;;;;;-1.05;97.53;100119.18;1763940;81;20975;-65
2021/10/15 04:08:13;;;;;;;44.18;21.35;;;;;;;-1.10;97.13;100117.69;1737364;80;21426;-66
2021/10/15 04:10:39;;;;;;;54.53;24.23;;;;;;;-1.09;97.58;100119.86;1753233;81;20995;-65
2021/10/15 04:13:07;;;;;;;58.60;23.57;;;;;;;-1.06;98.03;100122.10;1719798;83;20931;-66
2021/10/15 04:15:34;;;;;;;52.13;24.45;;;;;;;-1.03;98.50;100114.91;1753327;81;21093;-66
2021/10/15 04:18:01;;;;;;;56.18;24.43;;;;;;;-0.95;99.25;100117.30;1753409;81;20915;-66
2021/10/15 04:20:29;;;;;;;53.35;24.05;;;;;;;-0.85;99.88;100112.20;1753440;81;21199;-66
2021/10/15 04:22:55;;;;;;;62.33;26.17;;;;;;;-0.77;100.00;100106.49;1753315;81;20962;-66
2021/10/15 04:25:22;;;;;;;55.45;27.00;;;;;;;-0.68;100.00;100105.13;1720137;83;20983;-66
2021/10/15 04:27:50;;;;;;;62.17;28.00;;;;;;;-0.60;100.00;100105.86;1715595;83;20912;-66
2021/10/15 04:30:16;;;;;;;66.02;27.82;;;;;;;-0.56;100.00;100102.44;1706908;83;20983;-66
2021/10/15 04:32:43;;;;;;;60.65;29.37;;;;;;;-0.54;100.00;100108.42;1753457;81;21270;-65
2021/10/15 04:35:11;;;;;;;63.70;31.35;;;;;;;-0.53;100.00;100111.42;1753372;81;20852;-65
2021/10/15 04:37:39;;;;;;;62.23;30.27;;;;;;;-0.50;100.00;100113.66;1719937;83;21479;-65
2021/10/15 04:40:08;;;;;;;64.55;30.55;;;;;;;-0.49;100.00;100115.83;1753437;81;20939;-65
2021/10/15 04:42:38;;;;;;;56.28;26.45;;;;;;;-0.49;100.00;100117.18;1719874;82;21014;-65
2021/10/15 04:45:07;;;;;;;61.35;28.52;;;;;;;-0.48;100.00;100118.83;1753500;81;21078;-65
2021/10/15 04:47:34;;;;;;;56.50;26.85;;;;;;;-0.51;100.00;100121.98;1753469;81;20848;-65
2021/10/15 04:50:01;;;;;;;52.83;26.50;;;;;;;-0.48;100.00;100121.52;1720002;83;21419;-66
2021/10/15 04:52:27;;;;;;;53.65;24.60;;;;;;;-0.46;100.00;100128.33;1719846;83;20987;-65
2021/10/15 04:54:54;;;;;;;55.55;26.97;;;;;;;-0.41;100.00;100124.95;1753546;81;21471;-65
2021/10/15 04:57:21;;;;;;;58.45;27.73;;;;;;;-0.39;100.00;100125.55;1753439;81;21150;-65
2021/10/15 04:59:48;;;;;;;53.70;25.27;;;;;;;-0.36;100.00;100119.69;1702739;83;20939;-65
2021/10/15 05:02:15;;;;;;;56.90;26.00;;;;;;;-0.33;100.00;100121.92;1753234;81;20959;-64
2021/10/15 05:04:43;;;;;;;52.93;25.90;;;;;;;-0.31;100.00;100127.91;1753361;81;20935;-66
2021/10/15 05:07:11;;;;;;;52.43;25.57;;;;;;;-0.25;100.00;100126.17;1719132;83;21122;-74
2021/10/15 05:09:38;;;;;;;49.95;25.10;;;;;;;-0.19;100.00;100126.07;1753145;80;21105;-74
2021/10/15 05:12:07;;;;;;;53.23;26.00;;;;;;;-0.12;100.00;100120.05;1753244;81;20975;-74
2021/10/15 05:14:35;;;;;;;45.08;23.55;;;;;;;-0.06;100.00;100120.47;1719662;82;21554;-76
2021/10/15 05:17:02;;;;;;;52.70;25.57;;;;;;;0.02;100.00;100121.16;1753381;81;21003;-76
2021/10/15 05:19:30;;;;;;;46.40;24.23;;;;;;;0.07;100.00;100127.50;1753625;81;21029;-67
2021/10/15 05:21:56;;;;;;;54.20;23.92;;;;;;;0.15;100.00;100125.80;1753249;81;21551;-68
2021/10/15 05:24:23;;;;;;;50.63;23.60;;;;;;;0.24;100.00;100133.03;1739841;81;20923;-68
2021/10/15 05:26:51;;;;;;;50.12;25.20;;;;;;;0.32;100.00;100136.73;1719686;83;20896;-67
2021/10/15 05:29:18;;;;;;;50.35;23.18;;;;;;;0.38;100.00;100135.80;1713308;82;21043;-67
2021/10/15 05:31:44;;;;;;;49.83;23.85;;;;;;;0.44;100.00;100136.22;1742166;81;20989;-72
2021/10/15 05:34:11;;;;;;;45.33;23.77;;;;;;;0.50;100.00;100131.75;1752527;82;23111;-69
2021/10/15 05:36:37;;;;;;;54.38;28.65;;;;;;;0.56;100.00;100129.46;1752720;82;21517;-69
2021/10/15 05:39:04;;;;;;;55.03;25.08;;;;;;;0.62;100.00;100135.23;1752484;82;20927;-69
2021/10/15 05:41:32;;;;;;;51.20;24.90;;;;;;;0.67;100.00;100132.66;1752587;82;20883;-74
2021/10/15 05:43:59;;;;;;;52.50;26.40;;;;;;;0.74;100.00;100129.83;1752594;82;20995;-72
2021/10/15 05:46:25;;;;;;;49.33;26.42;;;;;;;0.83;100.00;100135.16;1753046;81;21163;-68
2021/10/15 05:48:52;;;;;;;52.75;26.05;;;;;;;0.92;100.00;100140.50;1753267;81;20920;-69
2021/10/15 05:51:21;;;;;;;48.48;24.72;;;;;;;0.99;100.00;100145.23;1753224;81;21313;-74
2021/10/15 05:53:49;;;;;;;52.45;25.70;;;;;;;1.08;100.00;100147.87;1753264;81;20979;-67
2021/10/15 05:58:53;;;;;;;55.17;27.85;;;;;;;1.24;100.00;100145.73;1746368;81;20999;-68
2021/10/15 06:01:26;;;;;;;44.90;25.30;;;;;;;1.37;100.00;100137.05;1721700;83;20895;-71
2021/10/15 06:14:57;;;;;;;43.70;22.15;;;;;;;2.05;100.00;100125.27;1756511;81;21412;-69
2021/10/15 06:17:23;;;;;;;41.08;21.73;;;;;;;2.25;100.00;100127.77;1756723;81;20948;-71
2021/10/15 06:19:53;;;;;;;41.45;21.30;;;;;;;2.42;100.00;100130.45;1756499;81;20900;-69
2021/10/15 06:22:25;;;;;;;35.25;20.45;;;;;;;2.58;100.00;100126.89;1756411;81;20947;-69
2021/10/15 06:24:54;;;;;;;43.30;22.73;;;;;;;2.73;100.00;100136.31;1746725;80;20947;-73
2021/10/15 06:27:34;;;;;;;38.90;20.45;;;;;;;2.86;100.00;100135.42;1739593;81;20991;-74
2021/10/15 06:30:03;;;;;;;38.42;21.95;;;;;;;2.99;99.67;100140.98;1736828;80;20939;-73
2021/10/15 06:32:31;;;;;;;37.15;19.98;;;;;;;3.12;98.76;100137.91;1756208;81;21011;-74
2021/10/15 06:34:57;;;;;;;39.40;21.90;;;;;;;3.34;99.24;100137.91;1756494;81;21396;-73
2021/10/15 06:37:24;;;;;;;41.85;22.48;;;;;;;3.84;98.74;100132.16;1756460;81;21109;-73
2021/10/15 06:39:52;;;;;;;45.17;22.27;;;;;;;4.48;96.58;100126.70;1756363;81;20935;-72
2021/10/15 06:42:19;;;;;;;30.72;19.00;;;;;;;5.15;94.31;100121.88;1756531;81;20959;-70
2021/10/15 06:44:46;;;;;;;35.03;20.20;;;;;;;5.75;89.70;100115.50;1756362;81;20998;-73
2021/10/15 06:47:13;;;;;;;33.65;19.35;;;;;;;6.22;86.89;100117.45;1756457;81;20844;-73
2021/10/15 06:49:40;;;;;;;33.18;19.00;;;;;;;6.59;82.53;100121.20;1756533;81;23324;-74
2021/10/15 06:52:06;;;;;;;34.10;19.52;;;;;;;6.80;81.59;100114.35;1756648;81;21459;-84
2021/10/15 06:54:33;;;;;;;31.50;18.60;;;;;;;7.01;80.87;100121.36;1756541;80;21455;-84
2021/10/15 06:56:59;;;;;;;40.38;20.10;;;;;;;7.16;79.46;100121.30;1747870;80;20995;-80
2021/10/15 06:59:26;;;;;;;39.90;22.80;;;;;;;7.25;78.18;100126.45;1732341;81;21045;-77
2021/10/15 07:01:53;;;;;;;40.38;19.42;;;;;;;7.38;78.10;100126.40;1726505;82;21535;-81
2021/10/15 07:04:21;;;;;;;35.48;19.00;;;;;;;7.57;77.02;100121.91;1744554;80;20927;-82
2021/10/15 07:06:48;;;;;;;29.90;17.02;;;;;;;7.85;76.53;100120.38;1733531;81;20925;-82
2021/10/15 07:09:15;;;;;;;27.77;17.17;;;;;;;8.22;75.94;100118.98;1726418;83;20859;-79
2021/10/15 07:11:44;;;;;;;29.20;16.67;;;;;;;8.64;74.40;100117.00;1760961;80;20975;-81
2021/10/15 07:14:12;;;;;;;30.57;16.50;;;;;;;9.04;71.56;100116.27;1775561;80;21209;-82
2021/10/15 07:16:39;;;;;;;27.58;17.23;;;;;;;9.21;70.74;100112.51;1791037;80;20974;-81
2021/10/15 07:19:06;;;;;;;29.37;15.35;;;;;;;9.40;69.90;100113.33;1790915;80;20884;-81
2021/10/15 07:21:34;;;;;;;33.10;16.37;;;;;;;9.68;68.79;100122.55;1786008;80;21475;-83
2021/10/15 07:24:01;;;;;;;29.67;16.48;;;;;;;9.92;68.48;100119.16;1769148;80;21046;-76
2021/10/15 07:26:30;;;;;;;30.17;16.17;;;;;;;10.16;67.76;100114.13;1756116;81;21118;-77
2021/10/15 07:29:00;;;;;;;22.75;13.83;;;;;;;10.35;66.09;100110.83;1755381;81;21050;-76
2021/10/15 07:31:31;;;;;;;33.05;15.25;;;;;;;10.52;64.31;100116.53;1755493;81;21498;-73
2021/10/15 07:34:05;;;;;;;26.77;14.87;;;;;;;10.59;63.93;100110.09;1755176;81;21039;-73
2021/10/15 07:36:37;;;;;;;22.42;12.98;;;;;;;10.81;64.54;100112.17;1738022;80;20975;-75
2021/10/15 07:39:06;;;;;;;23.27;13.83;;;;;;;11.27;62.98;100107.69;1786835;80;21112;-73
2021/10/15 07:41:43;;;;;;;25.52;13.75;;;;;;;11.59;60.23;100107.51;1786229;80;20927;-78
2021/10/15 07:44:12;;;;;;;20.80;12.63;;;;;;;11.73;59.34;100111.61;1786044;80;20899;-75
2021/10/15 07:46:44;;;;;;;22.42;12.53;;;;;;;11.86;57.87;100109.41;1786847;80;20939;-72
2021/10/15 07:49:16;;;;;;;23.60;12.85;;;;;;;12.00;57.17;100100.55;1786986;80;21058;-77
2021/10/15 07:51:49;;;;;;;22.05;12.18;;;;;;;12.14;57.21;100107.34;1777853;80;21149;-85
2021/10/15 07:54:19;;;;;;;21.07;12.60;;;;;;;12.36;56.36;100101.84;1772804;80;21010;-89
2021/10/15 07:56:50;;;;;;;22.48;13.32;;;;;;;12.58;55.09;100100.20;1757380;81;21524;-81
2021/10/15 07:59:19;;;;;;;20.95;12.45;;;;;;;12.67;54.42;100089.48;1761139;80;20962;-78
2021/10/15 08:01:48;;;;;;;22.62;13.10;;;;;;;12.76;54.00;100094.44;1771054;80;21184;-82
2021/10/15 08:04:15;;;;;;;22.02;12.45;;;;;;;12.93;53.73;100087.38;1756386;81;21128;-86
2021/10/15 08:06:42;;;;;;;23.30;11.68;;;;;;;13.17;53.06;100096.91;1756269;81;20995;-82
2021/10/15 08:09:09;;;;;;;18.98;11.30;;;;;;;13.43;53.01;100099.70;1774369;80;21037;-79
2021/10/15 08:11:35;;;;;;;18.15;10.23;;;;;;;13.75;50.62;100102.61;1777609;80;21531;-77
2021/10/15 08:14:02;;;;;;;16.10;11.45;;;;;;;13.87;50.06;100101.94;1764721;80;21060;-76
2021/10/15 08:16:28;;;;;;;19.90;10.48;;;;;;;13.89;49.35;100099.09;1772244;80;21075;-88
2021/10/15 08:18:55;;;;;;;17.48;10.63;;;;;;;13.93;49.43;100100.64;1792263;80;20912;-86
2021/10/15 08:21:22;;;;;;;15.58;10.20;;;;;;;14.10;49.01;100106.73;1753429;81;21008;-88
2021/10/15 08:23:49;;;;;;;22.58;10.48;;;;;;;14.31;48.94;100089.73;1741488;81;21042;-79
2021/10/15 08:26:16;;;;;;;17.30;10.35;;;;;;;14.43;46.53;100090.48;1744983;81;21058;-79
2021/10/15 08:28:44;;;;;;;16.93;9.45;;;;;;;14.32;47.05;100092.75;1762802;81;21120;-75
2021/10/15 08:31:12;;;;;;;18.07;9.75;;;;;;;14.21;46.85;100096.98;1762859;81;20984;-79
2021/10/15 08:33:40;;;;;;;17.07;10.53;;;;;;;14.10;46.94;100090.16;1762210;81;21015;-73
2021/10/15 08:36:08;;;;;;;16.02;9.73;;;;;;;14.12;45.99;100083.75;1740512;81;21075;-82
2021/10/15 08:38:35;;;;;;;16.10;10.40;;;;;;;14.06;46.85;100076.77;1747807;81;21061;-75
2021/10/15 08:41:02;;;;;;;17.80;9.03;;;;;;;14.07;46.21;100075.63;1695666;83;21119;-82
2021/10/15 08:43:37;;;;;;;13.85;8.33;;;;;;;14.14;45.94;100070.43;1787128;80;20919;-76
2021/10/15 08:46:04;;;;;;;17.32;9.70;;;;;;;14.30;46.08;100076.26;1782344;80;21015;-84
2021/10/15 08:48:31;;;;;;;13.03;8.75;;;;;;;14.53;46.32;100076.30;1787315;80;21486;-74
2021/10/15 08:50:58;;;;;;;16.12;8.30;;;;;;;14.78;44.36;100070.45;1787384;80;21493;-82
2021/10/15 08:53:26;;;;;;;14.38;8.03;;;;;;;15.02;43.43;100073.41;1787236;80;21193;-84
2021/10/15 08:55:53;;;;;;;11.12;7.25;;;;;;;15.25;43.50;100073.95;1727635;80;20912;-79
2021/10/15 08:58:20;;;;;;;11.95;7.35;;;;;;;15.35;42.82;100068.61;1770029;78;21077;-80
2021/10/15 09:00:58;;;;;;;15.23;6.85;;;;;;;15.36;41.63;100066.89;1772797;80;21072;-82
2021/10/15 09:03:25;;;;;;;12.05;6.62;;;;;;;15.35;41.79;100068.61;1769728;80;21027;-82
2021/10/15 09:06:03;;;;;;;9.88;6.12;;;;;;;15.55;41.96;100071.97;1776264;80;21159;-85
2021/10/15 09:08:55;;;;;;;16.30;6.67;;;;;;;15.73;40.28;100060.21;1772868;80;21251;-88
2021/10/15 09:11:40;;;;;;;11.43;6.58;;;;;;;15.75;40.01;100064.27;1755951;81;21062;-81
2021/10/15 09:14:25;;;;;;;9.30;5.85;;;;;;;15.80;39.35;100059.91;1755092;81;21589;-86
2021/10/15 09:17:18;;;;;;;9.05;5.30;;;;;;;15.89;38.99;100065.95;1764897;80;21026;-87
2021/10/15 09:19:52;;;;;;;10.13;6.30;;;;;;;15.89;38.49;100072.30;1789998;80;20891;-87
2021/10/15 09:22:34;;;;;;;7.50;5.90;;;;;;;15.94;38.39;100055.48;1753001;81;46866;-85
2021/10/15 09:25:11;;;;;;;16.48;6.58;;;;;;;16.01;38.22;100057.70;1696309;83;21615;-86
2021/10/15 09:27:41;;;;;;;10.98;6.22;;;;;;;16.12;38.52;100055.56;1753571;81;21455;-81
2021/10/15 09:30:13;;;;;;;8.50;5.20;;;;;;;16.39;38.49;100049.97;1752967;81;21006;-86
2021/10/15 09:32:45;;;;;;;10.15;5.20;;;;;;;16.62;37.19;100053.14;1753382;81;21150;-79
2021/10/15 09:35:15;;;;;;;7.00;5.00;;;;;;;16.63;36.08;100049.22;1753422;81;21015;-84
2021/10/15 09:37:43;;;;;;;10.32;5.90;;;;;;;16.51;36.57;100047.80;1752746;81;21039;-78
2021/10/15 09:40:14;;;;;;;12.78;7.22;;;;;;;16.47;36.42;100045.48;1752470;81;21056;-76
2021/10/15 09:42:46;;;;;;;10.58;6.40;;;;;;;16.48;35.63;100040.98;1761615;81;21015;-75
2021/10/15 09:45:21;;;;;;;;;;;;;;;16.44;36.12;100034.51;1732350;81;22503;-71
2021/10/15 09:47:52;;;;;;;9.45;5.35;;;;;;;16.50;37.11;100031.75;1747529;81;20096;-74
2021/10/15 09:50:21;;;;;;;8.95;5.47;;;;;;;16.73;35.85;100025.81;1746124;81;21503;-77
2021/10/15 09:52:55;;;;;;;9.58;5.90;;;;;;;16.85;35.64;100027.19;1719433;83;21034;-73
2021/10/15 09:55:28;;;;;;;24.98;11.30;;;;;;;16.82;35.59;100026.48;1787214;80;20975;-72
2021/10/15 09:57:55;;;;;;;10.82;6.22;;;;;;;16.88;35.15;100033.42;1786959;80;21765;-69
2021/10/15 10:00:34;;;;;;;7.58;4.90;;;;;;;16.83;34.89;100025.33;1786933;80;21017;-69
2021/10/15 10:02:58;;;;;;;11.55;6.95;;;;;;;16.79;34.54;100023.02;1781534;80;21013;-70
2021/10/15 10:05:25;;;;;;;11.95;6.12;;;;;;;16.65;35.03;100017.03;1787029;80;21042;-69
2021/10/15 10:07:54;;;;;;;11.10;5.75;;;;;;;16.48;35.69;100017.43;1786843;80;21048;-70
2021/10/15 10:10:29;;;;;;;11.53;5.70;;;;;;;16.46;35.92;100019.73;1756168;80;21162;-68
2021/10/15 10:12:58;;;;;;;14.28;5.67;;;;;;;16.60;36.00;100010.30;1745733;81;21558;-68
2021/10/15 10:15:28;;;;;;;17.25;5.78;;;;;;;16.90;34.56;100008.12;1770367;81;21047;-69
2021/10/15 10:18:29;;;;;;;7.83;5.15;;;;;;;17.06;34.81;100010.43;1770402;81;21499;-67
2021/10/15 10:21:12;;;;;;;8.90;5.42;;;;;;;17.22;34.54;100003.02;1765566;81;21051;-69
2021/10/15 10:24:09;;;;;;;10.50;5.72;;;;;;;17.35;34.84;100000.42;1692529;84;21121;-71
2021/10/15 10:26:47;;;;;;;13.85;5.03;;;;;;;17.53;33.95;100000.97;1692539;84;20924;-68
2021/10/15 10:29:14;;;;;;;12.18;5.33;;;;;;;17.42;33.12;99995.67;1692163;84;21559;-66
2021/10/15 10:31:40;;;;;;;14.13;6.28;;;;;;;17.09;33.52;99991.70;1692024;84;21385;-68
2021/10/15 10:34:15;;;;;;;10.03;5.97;;;;;;;16.76;34.72;99994.60;1692177;84;21020;-69
2021/10/15 10:36:42;;;;;;;10.43;5.90;;;;;;;16.67;34.95;99992.55;1691367;84;21162;-67
2021/10/15 10:39:24;;;;;;;11.05;6.00;;;;;;;16.82;35.32;100002.92;1692284;84;21014;-68
2021/10/15 10:42:11;;;;;;;12.97;5.97;;;;;;;17.06;34.94;99997.38;1677051;84;20999;-67
2021/10/15 10:44:50;;;;;;;11.88;6.03;;;;;;;17.36;34.33;99990.13;1692583;84;21407;-68
2021/10/15 10:47:20;;;;;;;6.90;5.30;;;;;;;17.38;33.96;99997.53;1693233;84;20980;-67
2021/10/15 10:50:09;;;;;;;13.60;6.25;;;;;;;17.37;33.56;99988.39;1692668;84;21153;-67
2021/10/15 10:52:51;;;;;;;7.92;6.05;;;;;;;17.22;33.57;99991.92;1692466;84;20892;-69
2021/10/15 10:55:46;;;;;;;10.93;6.17;;;;;;;17.13;34.05;99978.18;1692306;84;20979;-69
2021/10/15 10:58:34;;;;;;;10.93;5.65;;;;;;;17.27;34.17;99979.78;1715625;83;21008;-68
2021/10/15 11:01:28;;;;;;;9.23;5.72;;;;;;;17.43;33.92;99980.64;1692357;84;21054;-72
2021/10/15 11:03:56;;;;;;;12.10;5.65;;;;;;;17.39;33.85;99985.27;1662814;85;20999;-69
2021/10/15 11:06:23;;;;;;;11.18;5.95;;;;;;;17.09;33.76;99978.64;1692237;84;21564;-69
2021/10/15 11:08:52;;;;;;;12.55;5.00;;;;;;;16.93;34.17;99972.19;1679287;84;21015;-70
2021/10/15 11:11:33;;;;;;;9.35;6.58;;;;;;;17.05;33.47;99966.62;1656840;82;21112;-71
2021/10/15 11:13:55;;;;;;;10.20;5.20;;;;;;;16.89;33.66;99972.65;1724720;83;21016;-68
2021/10/15 11:16:27;;;;;;;13.35;5.37;;;;;;;16.80;34.39;99962.25;1725324;83;21173;-68
2021/10/15 11:18:54;;;;;;;12.65;6.45;;;;;;;17.00;33.80;99970.22;1725084;83;21321;-69
2021/10/15 11:21:22;;;;;;;10.30;5.42;;;;;;;17.02;33.58;99961.78;1766378;80;21013;-76
2021/10/15 11:23:50;;;;;;;10.95;5.33;;;;;;;17.06;34.23;99950.80;1787029;80;21041;-68
2021/10/15 11:26:16;;;;;;;10.63;5.65;;;;;;;17.27;33.53;99950.64;1769049;80;20979;-71
2021/10/15 11:28:44;;;;;;;12.07;5.70;;;;;;;17.40;33.16;99946.65;1784023;80;21162;-77
2021/10/15 11:31:17;;;;;;;12.78;5.65;;;;;;;17.43;32.58;99951.50;1719876;83;20947;-68
2021/10/15 11:33:40;;;;;;;14.73;5.78;;;;;;;17.33;32.90;99938.14;1761934;81;20988;-71